Time;durP1;ratioP1;P1;durP2;ratioP2;P2;SDS_P1;SDS_P2;PMS_P1;PMS_P2;Temp;Humidity;BMP_temperature;BMP_pressure;BME280_temperature;BME280_humidity;BME280_pressure;Samples;Min_cycle;Max_cycle;Signal;HPM_P1;HPM_P2
2023/11/01 00:00:44;;;;;;;;;;;;;;;10.86;80.77;99301.61;131236;1291;22553;-83
2023/11/01 00:03:45;;;;;;;;;;;;;;;10.85;80.74;99304.79;131242;1291;22549;-79
2023/11/01 00:06:45;;;;;;;;;;;;;;;10.85;80.69;99309.90;131376;1288;22527;-84
2023/11/01 00:09:45;;;;;;;;;;;;;;;10.85;80.97;99310.38;131191;1298;22797;-84
2023/11/01 00:12:46;;;;;;;;;;;;;;;10.85;80.79;99308.96;131357;1297;26529;-84
2023/11/01 00:15:46;;;;;;;;;;;;;;;10.85;80.72;99315.73;131267;1297;22593;-85
2023/11/01 00:18:47;;;;;;;;;;;;;;;10.85;80.67;99319.28;131434;1293;24586;-83
2023/11/01 00:21:47;;;;;;;;;;;;;;;10.84;80.84;99323.83;131183;1294;24225;-83
2023/11/01 00:24:48;;;;;;;;;;;;;;;10.83;80.79;99329.17;131336;1294;22583;-82
2023/11/01 00:27:48;;;;;;;;;;;;;;;10.83;80.77;99326.36;131217;1287;27038;-85
2023/11/01 00:30:48;;;;;;;;;;;;;;;10.83;80.58;99327.30;131504;1295;23763;-83
2023/11/01 00:33:50;;;;;;;;;;;;;;;10.83;80.77;99328.56;131323;1289;24346;-80
2023/11/01 00:36:50;;;;;;;;;;;;;;;10.82;80.71;99327.38;131444;1298;22663;-86
2023/11/01 00:39:51;;;;;;;;;;;;;;;10.83;80.69;99325.86;131450;1297;24267;-87
2023/11/01 00:42:51;;;;;;;;;;;;;;;10.82;80.55;99330.47;131358;1289;22611;-82
2023/11/01 00:45:51;;;;;;;;;;;;;;;10.82;80.67;99332.73;131374;1297;25426;-83
2023/11/01 00:48:52;;;;;;;;;;;;;;;10.81;80.78;99334.55;131399;1297;22794;-83
2023/11/01 00:51:52;;;;;;;;;;;;;;;10.82;80.58;99338.77;131374;1288;25354;-81
2023/11/01 00:54:53;;;;;;;;;;;;;;;10.81;80.68;99340.63;131540;1297;22540;-81
2023/11/01 00:57:53;;;;;;;;;;;;;;;10.80;80.67;99348.38;131397;1298;22565;-82
2023/11/01 01:00:53;;;;;;;;;;;;;;;10.77;80.69;99350.44;131365;1296;25376;-83
2023/11/01 01:03:54;;;;;;;;;;;;;;;10.75;80.84;99348.33;131370;1297;25303;-83
2023/11/01 01:06:54;;;;;;;;;;;;;;;10.72;81.09;99348.17;131533;1297;27425;-83
2023/11/01 01:09:56;;;;;;;;;;;;;;;10.68;81.07;99350.45;131393;1288;23895;-82
2023/11/01 01:12:57;;;;;;;;;;;;;;;10.64;81.09;99351.86;131380;1297;22545;-84
2023/11/01 01:15:58;;;;;;;;;;;;;;;10.60;81.07;99351.82;131528;1294;22540;-81
2023/11/01 01:18:58;;;;;;;;;;;;;;;10.58;81.36;99353.00;131348;1285;22549;-84
2023/11/01 01:21:59;;;;;;;;;;;;;;;10.53;81.25;99351.54;131328;1297;22580;-83
2023/11/01 01:24:59;;;;;;;;;;;;;;;10.51;81.47;99355.14;131426;1298;22647;-84
2023/11/01 01:28:00;;;;;;;;;;;;;;;10.49;81.47;99356.83;131830;1288;22560;-82
2023/11/01 01:31:00;;;;;;;;;;;;;;;10.50;81.72;99361.69;131409;1294;22569;-84
2023/11/01 01:34:00;;;;;;;;;;;;;;;10.50;81.51;99366.12;131306;1298;22538;-83
2023/11/01 01:37:01;;;;;;;;;;;;;;;10.50;81.61;99365.55;131432;1297;23883;-83
2023/11/01 01:40:02;;;;;;;;;;;;;;;10.50;81.58;99368.02;131341;1290;24397;-85
2023/11/01 01:43:21;;;;;;;;;;;;;;;10.51;81.62;99362.94;131402;1291;22649;-82
2023/11/01 01:46:24;;;;;;;;;;;;;;;10.52;81.61;99363.88;131348;1294;22649;-84
2023/11/01 01:49:25;;;;;;;;;;;;;;;10.53;81.67;99370.46;131221;1298;22618;-82
2023/11/01 01:52:26;;;;;;;;;;;;;;;10.54;81.95;99364.52;131346;1298;23477;-83
2023/11/01 01:55:26;;;;;;;;;;;;;;;10.54;81.79;99368.40;131284;1294;22536;-83
2023/11/01 01:58:27;;;;;;;;;;;;;;;10.53;81.84;99367.98;131141;1291;22580;-83
2023/11/01 02:01:28;;;;;;;;;;;;;;;10.53;81.87;99368.39;131146;1291;22596;-82
2023/11/01 02:04:28;;;;;;;;;;;;;;;10.52;81.74;99367.39;131218;1295;23925;-83
2023/11/01 02:07:29;;;;;;;;;;;;;;;10.53;81.78;99371.05;131153;1298;25316;-85
2023/11/01 02:10:29;;;;;;;;;;;;;;;10.53;81.64;99378.59;131097;1294;22649;-80
2023/11/01 02:13:30;;;;;;;;;;;;;;;10.54;81.78;99381.66;131385;1298;25508;-82
2023/11/01 02:16:30;;;;;;;;;;;;;;;10.55;81.65;99383.30;131352;1298;22555;-86
2023/11/01 02:19:31;;;;;;;;;;;;;;;10.57;81.79;99383.37;131385;1294;22543;-82
2023/11/01 02:22:31;;;;;;;;;;;;;;;10.57;81.75;99380.67;131292;1298;23322;-83
2023/11/01 02:25:31;;;;;;;;;;;;;;;10.57;81.74;99382.64;131274;1298;22548;-83
2023/11/01 02:28:32;;;;;;;;;;;;;;;10.59;81.69;99391.05;131550;1281;22603;-81
2023/11/01 02:31:32;;;;;;;;;;;;;;;10.60;81.79;99392.63;131488;1297;22559;-80
2023/11/01 02:34:33;;;;;;;;;;;;;;;10.61;81.60;99392.63;131362;1296;22542;-82
2023/11/01 02:37:33;;;;;;;;;;;;;;;10.61;81.48;99390.80;131204;1294;22549;-81
2023/11/01 02:40:35;;;;;;;;;;;;;;;10.62;81.53;99394.17;131263;1292;22538;-83
2023/11/01 02:43:35;;;;;;;;;;;;;;;10.63;81.44;99393.55;131488;1298;22550;-84
2023/11/01 02:46:36;;;;;;;;;;;;;;;10.65;81.43;99392.56;131676;1297;22584;-84
2023/11/01 02:49:36;;;;;;;;;;;;;;;10.67;81.64;99392.20;131380;1296;22548;-85
2023/11/01 02:52:37;;;;;;;;;;;;;;;10.68;81.41;99394.54;131358;1297;22624;-84
2023/11/01 02:55:38;;;;;;;;;;;;;;;10.67;81.31;99395.39;131468;1288;24447;-84
2023/11/01 02:58:39;;;;;;;;;;;;;;;10.66;81.47;99394.81;131389;1298;22564;-85
2023/11/01 03:01:42;;;;;;;;;;;;;;;10.64;81.55;99396.07;131439;1301;25223;-83
2023/11/01 03:04:42;;;;;;;;;;;;;;;10.62;81.64;99397.39;131493;1298;22645;-82
2023/11/01 03:07:42;;;;;;;;;;;;;;;10.60;81.63;99400.83;131516;1298;23412;-82
2023/11/01 03:10:43;;;;;;;;;;;;;;;10.58;81.71;99402.65;131495;1289;22540;-82
2023/11/01 03:13:43;;;;;;;;;;;;;;;10.55;81.78;99402.27;131702;1297;22552;-83
2023/11/01 03:16:43;;;;;;;;;;;;;;;10.52;81.83;99400.89;131441;1296;25075;-82
2023/11/01 03:19:45;;;;;;;;;;;;;;;10.50;81.79;99403.43;131429;1294;22568;-85
2023/11/01 03:22:45;;;;;;;;;;;;;;;10.48;81.73;99405.57;131365;1291;22653;-81
2023/11/01 03:25:45;;;;;;;;;;;;;;;10.46;82.04;99407.49;131359;1289;22687;-84
2023/11/01 03:28:46;;;;;;;;;;;;;;;10.43;81.74;99409.02;131382;1297;23312;-82
2023/11/01 03:31:46;;;;;;;;;;;;;;;10.42;82.02;99414.83;131360;1295;22548;-81
2023/11/01 03:34:47;;;;;;;;;;;;;;;10.39;82.22;99417.14;131485;1297;22558;-83
2023/11/01 03:37:47;;;;;;;;;;;;;;;10.35;82.13;99417.92;131380;1297;23382;-85
2023/11/01 03:40:48;;;;;;;;;;;;;;;10.32;82.24;99422.01;131446;1296;23808;-83
2023/11/01 03:43:48;;;;;;;;;;;;;;;10.29;82.18;99427.63;131505;1295;23521;-85
2023/11/01 03:46:49;;;;;;;;;;;;;;;10.27;82.50;99430.85;131336;1291;22563;-85
2023/11/01 03:49:49;;;;;;;;;;;;;;;10.23;82.31;99433.42;131548;1298;22573;-84
2023/11/01 03:52:49;;;;;;;;;;;;;;;10.20;82.46;99440.84;131362;1298;22654;-85
2023/11/01 03:55:50;;;;;;;;;;;;;;;10.18;82.37;99442.00;131393;1293;22564;-83
2023/11/01 03:58:50;;;;;;;;;;;;;;;10.15;82.38;99443.98;131458;1294;22605;-83
2023/11/01 04:01:51;;;;;;;;;;;;;;;10.12;82.62;99440.09;131536;1298;22576;-82
2023/11/01 04:04:51;;;;;;;;;;;;;;;10.08;82.50;99436.25;131472;1295;22582;-84
2023/11/01 04:07:51;;;;;;;;;;;;;;;10.06;82.58;99437.45;131246;1288;23120;-85
2023/11/01 04:10:52;;;;;;;;;;;;;;;10.01;82.53;99439.02;131329;1297;22620;-83
2023/11/01 04:13:53;;;;;;;;;;;;;;;9.97;82.61;99440.10;131433;1297;22646;-83
2023/11/01 04:16:53;;;;;;;;;;;;;;;9.92;82.72;99440.88;131240;1289;22671;-86
2023/11/01 04:19:54;;;;;;;;;;;;;;;9.87;82.83;99442.20;131246;1296;22542;-85
2023/11/01 04:22:54;;;;;;;;;;;;;;;9.84;82.89;99448.95;131288;1296;22683;-82
2023/11/01 04:25:55;;;;;;;;;;;;;;;9.80;82.95;99455.44;131352;1290;25438;-84
2023/11/01 04:28:55;;;;;;;;;;;;;;;9.77;83.12;99455.11;131398;1290;22926;-82
2023/11/01 04:31:55;;;;;;;;;;;;;;;9.75;83.22;99455.55;131709;1298;22671;-83
2023/11/01 04:34:56;;;;;;;;;;;;;;;9.71;83.23;99455.20;131358;1292;23229;-80
2023/11/01 04:37:56;;;;;;;;;;;;;;;9.69;83.47;99455.51;131516;1294;22966;-81
2023/11/01 04:40:57;;;;;;;;;;;;;;;9.66;83.62;99454.91;131650;1301;22699;-79
2023/11/01 04:43:57;;;;;;;;;;;;;;;9.62;83.51;99455.38;131667;1295;25434;-81
2023/11/01 04:46:57;;;;;;;;;;;;;;;9.58;83.51;99456.77;131780;1292;22558;-81
2023/11/01 04:49:58;;;;;;;;;;;;;;;9.53;83.52;99462.08;131597;1292;22953;-85
2023/11/01 04:52:58;;;;;;;;;;;;;;;9.48;83.47;99464.27;131604;1292;23655;-82
2023/11/01 04:55:59;;;;;;;;;;;;;;;9.41;83.60;99462.21;131621;1301;22578;-83
2023/11/01 04:59:00;;;;;;;;;;;;;;;9.36;83.62;99465.81;131577;1297;23590;-83
2023/11/01 05:02:00;;;;;;;;;;;;;;;9.31;83.76;99465.67;131561;1292;22593;-86
2023/11/01 05:05:03;;;;;;;;;;;;;;;9.29;83.80;99460.95;131534;1298;22534;-84
2023/11/01 05:08:03;;;;;;;;;;;;;;;9.27;83.90;99462.91;131648;1292;22516;-85
2023/11/01 05:11:05;;;;;;;;;;;;;;;9.25;83.96;99464.18;131510;1292;24398;-85
2023/11/01 05:14:05;;;;;;;;;;;;;;;9.24;84.07;99467.14;131300;1298;22658;-81
2023/11/01 05:17:05;;;;;;;;;;;;;;;9.24;84.05;99470.55;131272;1299;23667;-81
2023/11/01 05:20:07;;;;;;;;;;;;;;;9.23;84.02;99474.13;131219;1292;23471;-82
2023/11/01 05:23:07;;;;;;;;;;;;;;;9.23;84.11;99479.15;131511;1290;22587;-83
2023/11/01 05:26:14;;;;;;;;;;;;;;;9.23;84.13;99480.17;131502;1296;24290;-82
2023/11/01 05:29:16;;;;;;;;;;;;;;;9.22;84.11;99483.80;131394;1295;22564;-84
2023/11/01 05:32:16;;;;;;;;;;;;;;;9.23;84.22;99482.09;131494;1289;23407;-83
2023/11/01 05:35:17;;;;;;;;;;;;;;;9.23;84.19;99475.21;131445;1292;22535;-83
2023/11/01 05:38:17;;;;;;;;;;;;;;;9.23;84.05;99476.46;131336;1289;22554;-82
2023/11/01 05:41:18;;;;;;;;;;;;;;;9.23;83.96;99481.23;131545;1298;26579;-82
2023/11/01 05:44:21;;;;;;;;;;;;;;;9.22;84.01;99487.66;131526;1298;143525;-81
2023/11/01 05:47:21;;;;;;;;;;;;;;;9.23;84.05;99490.47;131558;1291;22547;-83
2023/11/01 05:50:23;;;;;;;;;;;;;;;9.22;83.97;99496.34;131427;1299;22537;-84
2023/11/01 05:53:23;;;;;;;;;;;;;;;9.23;83.95;99501.48;131505;1301;24042;-83
2023/11/01 05:56:26;;;;;;;;;;;;;;;9.24;84.14;99509.77;131471;1296;22644;-85
2023/11/01 05:59:27;;;;;;;;;;;;;;;9.24;84.09;99508.50;131572;1294;24363;-81
2023/11/01 06:02:28;;;;;;;;;;;;;;;9.26;84.25;99508.48;131278;1295;23330;-81
2023/11/01 06:05:28;;;;;;;;;;;;;;;9.26;84.15;99507.48;131374;1292;22547;-81
2023/11/01 06:08:29;;;;;;;;;;;;;;;9.28;84.19;99504.84;131534;1294;25278;-80
2023/11/01 06:11:30;;;;;;;;;;;;;;;9.30;84.11;99506.92;131650;1294;22605;-80
2023/11/01 06:14:30;;;;;;;;;;;;;;;9.32;84.15;99510.41;131282;1290;22555;-81
2023/11/01 06:17:30;;;;;;;;;;;;;;;9.34;84.21;99509.80;131406;1288;22524;-80
2023/11/01 06:20:34;;;;;;;;;;;;;;;9.35;84.11;99512.98;131346;1295;22564;-79
2023/11/01 06:23:35;;;;;;;;;;;;;;;9.37;84.14;99515.28;131528;1295;22616;-81
2023/11/01 06:26:36;;;;;;;;;;;;;;;9.37;84.17;99521.06;131457;1295;22598;-80
2023/11/01 06:29:36;;;;;;;;;;;;;;;9.40;84.23;99522.35;131514;1292;22881;-82
2023/11/01 06:32:37;;;;;;;;;;;;;;;9.41;84.35;99526.98;131544;1292;23579;-80
2023/11/01 06:35:37;;;;;;;;;;;;;;;9.44;84.36;99526.14;131551;1295;23915;-80
2023/11/01 06:38:38;;;;;;;;;;;;;;;9.46;84.11;99535.27;131705;1296;25400;-80
2023/11/01 06:41:38;;;;;;;;;;;;;;;9.48;84.33;99538.95;131875;1289;22585;-81
2023/11/01 06:44:39;;;;;;;;;;;;;;;9.49;84.38;99543.06;131482;1289;23260;-82
2023/11/01 06:47:39;;;;;;;;;;;;;;;9.52;84.35;99551.59;131567;1292;22541;-80
2023/11/01 06:50:44;;;;;;;;;;;;;;;9.55;84.52;99547.36;131467;1286;22582;-82
2023/11/01 08:54:13;;;;;;;;;;;;;;;11.64;82.88;99567.01;129526;1296;22880;-74
2023/11/01 08:57:15;;;;;;;;;;;;;;;11.82;82.86;99576.46;129669;1308;25242;-74
2023/11/01 09:00:16;;;;;;;;;;;;;;;11.98;82.67;99574.35;129518;1311;22667;-75
2023/11/01 09:03:18;;;;;;;;;;;;;;;12.08;82.23;99577.08;130796;1299;22539;-75
2023/11/01 09:06:19;;;;;;;;;;;;;;;12.17;82.09;99577.16;130007;1296;23757;-74
2023/11/01 09:09:20;;;;;;;;;;;;;;;12.26;81.72;99577.36;131493;1303;25446;-75
2023/11/01 09:12:21;;;;;;;;;;;;;;;12.34;81.54;99580.26;130061;1306;25500;-75
2023/11/01 09:15:21;;;;;;;;;;;;;;;12.46;81.59;99582.41;129988;1303;22557;-75
2023/11/01 09:18:22;;;;;;;;;;;;;;;12.62;81.44;99584.11;130080;1303;25311;-75
2023/11/01 09:21:23;;;;;;;;;;;;;;;12.75;80.99;99581.69;129818;1303;23124;-75
2023/11/01 09:24:23;;;;;;;;;;;;;;;12.85;80.72;99582.13;130767;1296;24128;-75
2023/11/01 09:27:24;;;;;;;;;;;;;;;12.94;80.30;99581.87;130422;1303;23315;-75
2023/11/01 09:30:24;;;;;;;;;;;;;;;13.09;80.36;99585.45;129392;1303;24258;-74
2023/11/01 09:33:27;;;;;;;;;;;;;;;13.27;79.90;99580.92;129961;1308;22560;-74
2023/11/01 09:36:27;;;;;;;;;;;;;;;13.60;80.08;99584.00;130197;1306;22607;-74
2023/11/01 09:39:28;;;;;;;;;;;;;;;14.05;79.60;99576.29;129665;1303;25329;-75
2023/11/01 09:42:29;;;;;;;;;;;;;;;14.35;78.87;99573.70;130408;1309;22541;-75
2023/11/01 09:45:29;;;;;;;;;;;;;;;14.62;78.36;99573.56;130065;1303;22693;-74
2023/11/01 09:48:33;;;;;;;;;;;;;;;14.68;76.94;99572.91;129465;1303;25337;-74
2023/11/01 09:51:34;;;;;;;;;;;;;;;14.83;76.25;99564.67;129633;1304;24216;-74
2023/11/01 09:54:34;;;;;;;;;;;;;;;15.05;75.94;99565.54;129843;1300;24296;-75
2023/11/01 09:57:35;;;;;;;;;;;;;;;15.29;75.19;99561.77;129631;1303;22555;-74
2023/11/01 10:00:36;;;;;;;;;;;;;;;15.53;74.95;99562.71;129962;1303;24574;-75
2023/11/01 10:03:37;;;;;;;;;;;;;;;15.83;74.58;99555.98;129775;1296;22578;-75
2023/11/01 10:06:38;;;;;;;;;;;;;;;16.17;74.03;99549.85;129693;1303;23400;-74
2023/11/01 10:09:39;;;;;;;;;;;;;;;16.32;72.55;99545.20;129794;1303;25403;-75
2023/11/01 10:12:39;;;;;;;;;;;;;;;16.34;72.39;99545.64;130098;1303;22599;-75
2023/11/01 10:15:40;;;;;;;;;;;;;;;16.36;71.35;99544.11;129458;1299;22599;-75
2023/11/01 10:18:43;;;;;;;;;;;;;;;16.42;70.95;99549.17;129743;1306;22646;-75
2023/11/01 10:21:44;;;;;;;;;;;;;;;16.50;70.98;99544.29;130089;1296;23772;-74
2023/11/01 10:24:44;;;;;;;;;;;;;;;16.55;70.21;99536.01;129921;1308;25354;-75
2023/11/01 10:27:46;;;;;;;;;;;;;;;16.42;69.35;99533.64;129734;1296;22539;-75
2023/11/01 10:30:48;;;;;;;;;;;;;;;16.34;69.48;99535.43;129651;1303;22546;-75
2023/11/01 10:33:48;;;;;;;;;;;;;;;16.20;68.60;99531.34;129762;1303;23810;-75
2023/11/01 10:36:52;;;;;;;;;;;;;;;15.94;68.43;99529.05;130316;1308;22604;-76
2023/11/01 10:39:56;;;;;;;;;;;;;;;15.69;68.49;99529.16;129983;1303;24346;-75
2023/11/01 10:43:00;;;;;;;;;;;;;;;15.56;68.73;99526.50;129666;1308;22548;-75
2023/11/01 10:46:00;;;;;;;;;;;;;;;15.49;68.87;99521.87;130146;1307;25341;-76
2023/11/01 10:49:03;;;;;;;;;;;;;;;15.44;68.82;99521.83;129562;1311;22554;-75
2023/11/01 10:52:05;;;;;;;;;;;;;;;15.43;68.83;99515.62;129994;1304;24273;-75
2023/11/01 10:55:05;;;;;;;;;;;;;;;15.47;68.86;99513.34;129722;1304;22579;-75
2023/11/01 10:58:06;;;;;;;;;;;;;;;15.66;68.93;99508.02;129570;1303;22546;-75
2023/11/01 11:01:06;;;;;;;;;;;;;;;16.03;68.74;99501.66;129790;1305;24221;-75
2023/11/01 11:04:12;;;;;;;;;;;;;;;16.34;67.89;99502.83;129581;1303;22817;-75
2023/11/01 11:07:32;;;;;;;;;;;;;;;16.41;66.34;99497.72;129823;1309;22550;-76
2023/11/01 11:10:33;;;;;;;;;;;;;;;16.45;66.68;99496.30;130007;1299;22562;-76
2023/11/01 11:13:33;;;;;;;;;;;;;;;16.42;66.56;99495.25;129867;1297;22552;-75
2023/11/01 11:16:53;;;;;;;;;;;;;;;16.36;66.26;99491.72;130203;1299;22558;-76
2023/11/01 11:20:14;;;;;;;;;;;;;;;16.19;65.69;99495.86;130642;1304;22578;-76
2023/11/01 11:23:16;;;;;;;;;;;;;;;15.94;64.51;99493.83;130394;1309;24251;-76
2023/11/01 11:26:37;;;;;;;;;;;;;;;15.75;64.57;99487.57;129986;1297;22579;-75
2023/11/01 11:29:49;;;;;;;;;;;;;;;15.69;64.95;99481.15;130247;1296;22542;-76
2023/11/01 11:33:05;;;;;;;;;;;;;;;15.67;64.82;99483.04;129621;1303;22578;-75
2023/11/01 11:36:09;;;;;;;;;;;;;;;15.75;65.27;99476.38;129508;1305;25258;-76
2023/11/01 11:39:10;;;;;;;;;;;;;;;15.70;64.31;99475.45;130030;1297;22555;-75
2023/11/01 11:42:31;;;;;;;;;;;;;;;15.64;64.81;99476.95;129648;1306;24894;-77
2023/11/01 11:45:31;;;;;;;;;;;;;;;15.64;65.16;99476.27;129874;1303;22715;-75
2023/11/01 12:06:44;;;;;;;;;;;;;;;16.06;63.99;99456.02;130365;1299;556971;-74
2023/11/01 12:16:02;;;;;;;;;;;;;;;16.58;61.57;99456.20;129855;1310;547714;-77
2023/11/01 12:19:18;;;;;;;;;;;;;;;16.32;61.88;99459.99;129749;1312;22635;-75
2023/11/01 12:22:22;;;;;;;;;;;;;;;16.35;62.52;99452.56;129042;1308;23054;-75
2023/11/01 12:25:23;;;;;;;;;;;;;;;16.47;62.50;99456.42;128821;1308;25333;-74
2023/11/01 12:28:23;;;;;;;;;;;;;;;16.52;61.70;99452.06;129617;1295;147720;-74
2023/11/01 12:31:24;;;;;;;;;;;;;;;16.40;61.58;99454.17;130312;1303;26523;-75
2023/11/01 12:34:24;;;;;;;;;;;;;;;16.42;61.97;99452.95;129419;1302;22639;-74
2023/11/01 12:55:55;;;;;;;;;;;;;;;15.79;60.43;99443.68;133315;1273;557206;-75
2023/11/01 12:58:55;;;;;;;;;;;;;;;15.52;60.36;99437.59;133734;1263;184970;-75
2023/11/01 13:01:55;;;;;;;;;;;;;;;15.40;60.52;99435.44;133708;1272;22554;-76
2023/11/01 13:04:57;;;;;;;;;;;;;;;15.36;60.68;99432.09;133956;1272;22525;-75
2023/11/01 13:07:58;;;;;;;;;;;;;;;15.37;61.39;99434.88;134226;1272;24333;-77
2023/11/01 13:11:04;;;;;;;;;;;;;;;15.45;61.12;99435.77;133545;1272;25329;-75
2023/11/01 13:14:04;;;;;;;;;;;;;;;15.40;60.62;99432.67;133724;1272;22502;-75
2023/11/01 13:17:05;;;;;;;;;;;;;;;15.28;60.13;99437.89;133657;1272;22595;-75
2023/11/01 13:20:06;;;;;;;;;;;;;;;15.05;60.35;99438.70;134104;1272;22773;-76
2023/11/01 13:23:06;;;;;;;;;;;;;;;14.87;60.74;99439.27;137507;1269;22440;-76
2023/11/01 13:26:08;;;;;;;;;;;;;;;14.77;61.08;99437.44;137534;1272;22437;-76
2023/11/01 13:29:09;;;;;;;;;;;;;;;14.67;61.52;99434.64;137541;1272;22405;-76
2023/11/01 13:32:09;;;;;;;;;;;;;;;14.64;61.79;99433.05;137498;1272;23215;-76
2023/11/01 13:35:12;;;;;;;;;;;;;;;14.70;62.24;99432.04;137536;1272;22394;-76
2023/11/01 13:38:13;;;;;;;;;;;;;;;14.77;62.44;99434.95;137513;1269;22469;-76
2023/11/01 13:41:13;;;;;;;;;;;;;;;14.76;62.46;99437.25;137521;1272;23204;-76
2023/11/01 13:44:14;;;;;;;;;;;;;;;14.71;62.63;99438.91;137519;1272;22434;-77
2023/11/01 13:47:14;;;;;;;;;;;;;;;14.66;62.59;99440.40;137498;1272;22433;-77
2023/11/01 13:50:14;;;;;;;;;;;;;;;14.60;62.25;99439.23;137540;1272;24384;-76
2023/11/01 13:53:15;;;;;;;;;;;;;;;14.51;62.32;99441.80;137531;1272;22415;-76
2023/11/01 13:56:15;;;;;;;;;;;;;;;14.40;62.40;99443.95;137513;1269;22408;-76
2023/11/01 13:59:16;;;;;;;;;;;;;;;14.28;62.95;99441.02;137545;1272;22411;-75
2023/11/01 14:02:17;;;;;;;;;;;;;;;14.19;63.01;99436.80;137501;1272;22477;-75
2023/11/01 14:05:17;;;;;;;;;;;;;;;14.09;62.94;99435.25;137516;1272;24407;-75
2023/11/01 14:08:17;;;;;;;;;;;;;;;14.02;63.28;99430.52;137532;1272;22396;-76
2023/11/01 14:11:21;;;;;;;;;;;;;;;13.99;63.60;99427.33;137506;1272;23308;-75
2023/11/01 14:14:22;;;;;;;;;;;;;;;14.03;63.76;99424.49;137397;1271;22452;-76
2023/11/01 14:17:23;;;;;;;;;;;;;;;14.03;63.80;99418.79;137500;1272;23211;-77
2023/11/01 14:20:23;;;;;;;;;;;;;;;14.00;63.73;99415.27;137509;1272;23109;-75
2023/11/01 14:23:24;;;;;;;;;;;;;;;13.95;63.85;99407.30;137487;1272;22443;-76
2023/11/01 14:26:25;;;;;;;;;;;;;;;13.88;64.01;99407.44;137492;1272;22707;-76
2023/11/01 14:29:26;;;;;;;;;;;;;;;13.83;64.25;99406.61;137478;1272;22418;-75
2023/11/01 14:32:28;;;;;;;;;;;;;;;13.78;64.26;99404.34;137479;1272;23216;-76
2023/11/01 14:35:28;;;;;;;;;;;;;;;13.73;64.53;99400.08;137471;1272;22428;-76
2023/11/01 14:38:29;;;;;;;;;;;;;;;13.67;64.57;99401.23;137501;1272;22443;-76
2023/11/01 14:41:29;;;;;;;;;;;;;;;13.59;64.87;99397.52;137520;1272;23114;-77
2023/11/01 14:44:30;;;;;;;;;;;;;;;13.52;65.14;99399.21;137495;1272;22446;-76
2023/11/01 14:47:34;;;;;;;;;;;;;;;13.41;65.19;99394.69;137485;1269;22411;-77
2023/11/01 14:50:35;;;;;;;;;;;;;;;13.32;65.43;99392.98;137391;1272;22474;-76
2023/11/01 14:53:35;;;;;;;;;;;;;;;13.23;65.57;99383.96;137493;1272;22400;-76
2023/11/01 14:56:38;;;;;;;;;;;;;;;13.14;65.77;99380.79;137505;1272;22465;-76
2023/11/01 14:59:39;;;;;;;;;;;;;;;13.06;65.89;99378.30;137471;1272;22424;-77
2023/11/01 15:02:39;;;;;;;;;;;;;;;12.99;66.01;99368.79;137486;1272;23499;-76
2023/11/01 15:05:40;;;;;;;;;;;;;;;12.92;66.13;99365.56;137486;1272;23104;-75
2023/11/01 15:08:40;;;;;;;;;;;;;;;12.84;66.20;99365.25;137459;1272;23147;-76
2023/11/01 15:11:42;;;;;;;;;;;;;;;12.73;66.53;99368.61;137364;1272;23260;-76
2023/11/01 15:14:44;;;;;;;;;;;;;;;12.63;66.69;99365.84;137525;1272;23153;-76
2023/11/01 15:17:49;;;;;;;;;;;;;;;12.53;66.89;99360.39;137482;1269;22449;-77
2023/11/01 15:20:51;;;;;;;;;;;;;;;12.43;67.16;99362.91;137528;1269;22472;-75
2023/11/01 15:23:57;;;;;;;;;;;;;;;12.32;67.40;99358.73;137309;1272;22462;-76
2023/11/01 15:26:59;;;;;;;;;;;;;;;12.22;67.60;99352.68;137495;1272;22477;-76
2023/11/01 15:29:59;;;;;;;;;;;;;;;12.08;67.78;99350.83;137477;1272;22462;-76
2023/11/01 15:33:05;;;;;;;;;;;;;;;11.99;68.07;99351.11;137342;1272;22436;-76
2023/11/01 15:36:08;;;;;;;;;;;;;;;11.94;68.39;99350.17;137474;1272;22414;-76
2023/11/01 15:39:13;;;;;;;;;;;;;;;11.89;68.62;99349.03;137378;1272;22438;-76
2023/11/01 15:42:20;;;;;;;;;;;;;;;11.84;68.79;99348.90;137319;1272;22457;-77
2023/11/01 15:45:24;;;;;;;;;;;;;;;11.73;68.98;99346.40;137469;1272;22444;-76
2023/11/01 15:48:25;;;;;;;;;;;;;;;11.65;69.17;99353.05;137470;1272;22396;-76
2023/11/01 15:51:25;;;;;;;;;;;;;;;11.57;69.39;99353.88;137464;1272;22862;-76
2023/11/01 15:54:28;;;;;;;;;;;;;;;11.46;69.67;99347.45;137461;1272;22400;-76
2023/11/01 15:57:29;;;;;;;;;;;;;;;11.33;69.85;99342.38;137484;1272;22423;-75
2023/11/01 16:00:31;;;;;;;;;;;;;;;11.20;69.96;99340.59;137495;1272;22448;-77
2023/11/01 16:03:33;;;;;;;;;;;;;;;11.10;70.19;99340.45;137483;1272;22424;-76
2023/11/01 16:06:36;;;;;;;;;;;;;;;10.97;70.60;99345.54;137513;1272;23176;-78
2023/11/01 16:09:38;;;;;;;;;;;;;;;10.80;70.88;99347.06;137499;1272;23100;-78
2023/11/01 16:12:39;;;;;;;;;;;;;;;10.58;71.19;99351.05;137523;1272;22429;-77
2023/11/01 16:15:40;;;;;;;;;;;;;;;10.38;71.76;99351.63;137502;1272;22445;-76
2023/11/01 16:18:41;;;;;;;;;;;;;;;10.30;72.20;99351.89;137495;1269;22432;-75
2023/11/01 16:21:47;;;;;;;;;;;;;;;10.27;72.43;99350.64;137432;1272;22421;-76
2023/11/01 16:24:49;;;;;;;;;;;;;;;10.22;72.65;99349.38;137494;1272;22448;-76
2023/11/01 16:27:50;;;;;;;;;;;;;;;10.18;72.98;99347.98;137488;1272;22395;-77
2023/11/01 16:30:54;;;;;;;;;;;;;;;10.15;73.34;99345.48;137485;1272;22432;-75
2023/11/01 16:33:54;;;;;;;;;;;;;;;10.11;73.45;99340.14;137474;1272;22437;-76
2023/11/01 16:36:56;;;;;;;;;;;;;;;10.07;73.57;99338.89;137484;1272;22402;-76
2023/11/01 16:39:57;;;;;;;;;;;;;;;10.00;73.83;99342.54;137424;1272;22429;-76
2023/11/01 16:43:01;;;;;;;;;;;;;;;9.98;73.99;99344.95;137237;1272;23605;-76
2023/11/01 16:46:03;;;;;;;;;;;;;;;9.92;74.01;99345.92;137460;1272;23240;-75
2023/11/01 16:49:06;;;;;;;;;;;;;;;9.88;74.30;99341.63;137459;1272;22429;-75
2023/11/01 16:52:07;;;;;;;;;;;;;;;9.87;74.58;99342.63;137442;1272;22515;-75
2023/11/01 16:55:10;;;;;;;;;;;;;;;9.84;74.79;99343.30;137506;1272;22396;-75
2023/11/01 16:58:12;;;;;;;;;;;;;;;9.81;75.15;99341.24;137508;1272;22415;-76
2023/11/01 17:01:13;;;;;;;;;;;;;;;9.77;75.55;99339.39;137383;1272;22420;-76
2023/11/01 17:04:13;;;;;;;;;;;;;;;9.73;75.57;99340.92;137505;1272;22501;-75
2023/11/01 17:07:15;;;;;;;;;;;;;;;9.69;75.89;99340.57;137488;1272;23198;-76
2023/11/01 17:10:17;;;;;;;;;;;;;;;9.65;75.97;99343.30;137518;1272;22416;-75
2023/11/01 17:13:17;;;;;;;;;;;;;;;9.62;76.59;99336.26;137483;1272;22388;-75
2023/11/01 17:16:18;;;;;;;;;;;;;;;9.58;76.83;99336.11;137499;1272;22517;-76
2023/11/01 17:19:19;;;;;;;;;;;;;;;9.56;76.75;99337.80;137534;1270;22425;-76
2023/11/01 17:22:39;;;;;;;;;;;;;;;9.53;76.77;99335.50;137345;1272;22429;-76
2023/11/01 17:25:49;;;;;;;;;;;;;;;9.50;77.04;99331.83;137385;1272;23188;-76
2023/11/01 17:28:49;;;;;;;;;;;;;;;9.47;77.28;99332.19;137481;1272;22475;-75
2023/11/01 17:31:51;;;;;;;;;;;;;;;9.44;77.63;99330.38;137515;1272;22893;-76
2023/11/01 17:34:53;;;;;;;;;;;;;;;9.42;77.97;99332.85;137495;1272;22427;-76
2023/11/01 17:37:54;;;;;;;;;;;;;;;9.41;78.31;99331.64;137510;1272;22423;-76
2023/11/01 17:40:56;;;;;;;;;;;;;;;9.38;78.56;99332.41;137479;1269;22584;-76
2023/11/01 17:43:58;;;;;;;;;;;;;;;9.37;78.89;99332.09;137517;1272;22394;-74
2023/11/01 17:46:58;;;;;;;;;;;;;;;9.38;79.09;99329.77;137337;1272;23271;-74
2023/11/01 17:50:00;;;;;;;;;;;;;;;9.39;79.05;99323.80;137497;1272;22410;-74
2023/11/01 17:53:00;;;;;;;;;;;;;;;9.39;79.48;99321.88;137480;1272;22391;-75
2023/11/01 17:56:01;;;;;;;;;;;;;;;9.40;79.64;99318.96;137497;1272;22427;-75
2023/11/01 17:59:01;;;;;;;;;;;;;;;9.40;79.89;99318.44;137506;1272;22415;-74
2023/11/01 18:02:03;;;;;;;;;;;;;;;9.40;79.69;99319.92;137487;1272;22523;-74
2023/11/01 18:05:04;;;;;;;;;;;;;;;9.40;80.12;99315.45;137511;1272;22437;-74
2023/11/01 18:08:08;;;;;;;;;;;;;;;9.39;79.85;99318.23;137525;1272;22384;-74
2023/11/01 18:11:11;;;;;;;;;;;;;;;9.35;79.85;99311.88;137521;1272;22412;-73
2023/11/01 18:14:12;;;;;;;;;;;;;;;9.30;80.08;99310.61;137493;1272;22457;-74
2023/11/01 18:17:14;;;;;;;;;;;;;;;9.25;80.05;99310.31;137355;1272;23620;-74
2023/11/01 18:20:25;;;;;;;;;;;;;;;9.21;80.37;99309.95;137323;1272;22870;-75